Lacrosse, WA

8:43 AM PDT on May 25, 2015 (GMT -0700)
KWACOLFA2 | | Change Station
CLOSE
Current Station
Personal Weather Station
Location: Onecho, WA
Elevation: 1749 ft
Nearby Weather Stations

Elev 1749 ft 46.73 °N, 117.54 °W | Updated 8 minutes ago

Mostly Cloudy
Mostly Cloudy
56.6 °F
Feels Like 56.6 °F
N
13.0
Wind Variable Wind from WSW
Gusts 14.0 mph

Today
High -- | Low -- °F
--% Chance of Precip.
Yesterday
High -- | Low -- °F
Precip. -- in
5:06 AM 8:30 PM
Waxing Crescent, 49% visible
Pressure 29.90 in
Visibility 10.0 miles
Clouds Scattered Clouds 6500 ft
Dew Point 49 °F
Humidity 75%
Rainfall 0.00 in
Snow Depth Not available.
UV 2 out of 12
Pollen 8.30 out of 12
Air Quality Not available.
Flu Activity Sporadic
METAR KPUW 251453Z AUTO 28006KT 10SM SCT065 13/08 A2992 RMK AO2 SLP125 T01280083 51012

More Conditions Fewer Conditions

Pressure 29.90 in
Visibility 10.0 miles
Clouds Scattered Clouds 6500 ft
Dew Point 49 °F
Humidity 75%
Rainfall 0.00 in
Snow Depth Not available.
UV 2 out of 12
Pollen 8.30 out of 12
Air Quality Not available.
Flu Activity Sporadic
METAR KPUW 251453Z AUTO 28006KT 10SM SCT065 13/08 A2992 RMK AO2 SLP125 T01280083 51012

More Conditions Fewer Conditions

10-Day Weather Forecast

Almanac

Astronomy

May. 25, 2015 Rise Set
Actual Time
Civil Twilight
Nautical Twilight
Astronomical Twilight
Moon
Length of Visible Light
Length of Day
Tomorrow will be .
, % of the Moon is Illuminated

Today's Extremes

State Highs State Lows

Community

WunderPhotos

Upload Photos

1,824,028 photos uploaded!

WunderBlogs® & News

Nearby

Air Quality

  Air Quality AQ Index Pollutant
Not available.

Snow Depth

Station Depth Elevation

Earthquake Activity

City Distance Mag. Time & Date
Minimum magnitude displayed is 2.5.

Coastal Water Temperatures

Place Temperature

Stations

Nearby Weather Stations

Station Location Temp. Windchill Dew Point Humidity Wind Precip. Elev Updated Type